createdAt,value
2019-03-30T00:00:08.659Z,1024.29
2019-03-30T00:01:08.695Z,1024.26
2019-03-30T00:02:08.705Z,1024.23
2019-03-30T00:03:08.741Z,1024.23
2019-03-30T00:04:08.788Z,1024.24
2019-03-30T00:05:08.806Z,1024.23
2019-03-30T00:06:08.844Z,1024.20
2019-03-30T00:07:08.822Z,1024.11
2019-03-30T00:08:08.847Z,1024.13
2019-03-30T00:09:08.918Z,1024.16
2019-03-30T00:10:08.940Z,1024.13
2019-03-30T00:11:08.956Z,1024.12
2019-03-30T00:12:08.968Z,1024.12
2019-03-30T00:13:08.988Z,1024.14
2019-03-30T00:14:08.993Z,1024.14
2019-03-30T00:15:08.991Z,1024.13
2019-03-30T00:16:09.016Z,1024.15
2019-03-30T00:17:09.067Z,1024.10
2019-03-30T00:18:09.078Z,1024.13
2019-03-30T00:19:09.080Z,1024.11
2019-03-30T00:20:09.097Z,1024.09
2019-03-30T00:21:09.122Z,1024.11
2019-03-30T00:22:09.159Z,1024.06
2019-03-30T00:23:09.178Z,1024.09
2019-03-30T00:24:09.232Z,1024.05
2019-03-30T00:25:09.238Z,1024.07
2019-03-30T00:26:09.284Z,1024.04
2019-03-30T00:27:09.268Z,1024.07
2019-03-30T00:28:09.283Z,1024.03
2019-03-30T00:29:09.303Z,1024.02
2019-03-30T00:30:09.351Z,1024.00
2019-03-30T00:31:09.368Z,1024.02
2019-03-30T00:32:09.402Z,1023.98
2019-03-30T00:33:09.394Z,1023.93
2019-03-30T00:34:09.418Z,1023.96
2019-03-30T00:35:09.445Z,1023.98
2019-03-30T00:36:09.456Z,1023.95
2019-03-30T00:37:09.478Z,1023.91
2019-03-30T00:38:09.526Z,1023.90
2019-03-30T00:39:09.544Z,1023.91
2019-03-30T00:40:09.552Z,1023.89
2019-03-30T00:41:09.569Z,1023.90
2019-03-30T00:42:09.608Z,1023.88
2019-03-30T00:43:09.617Z,1023.86
2019-03-30T00:44:09.638Z,1023.91
2019-03-30T00:45:09.670Z,1023.87
2019-03-30T00:46:09.688Z,1023.88
2019-03-30T00:47:09.708Z,1023.87
2019-03-30T00:48:09.716Z,1023.89
2019-03-30T00:49:09.749Z,1023.89
2019-03-30T00:50:09.774Z,1023.91
2019-03-30T00:51:09.822Z,1023.89
2019-03-30T00:52:09.840Z,1023.87
2019-03-30T00:53:09.873Z,1023.89
2019-03-30T00:54:09.872Z,1023.86
2019-03-30T00:55:09.957Z,1023.88
2019-03-30T00:56:09.948Z,1023.88
2019-03-30T00:57:09.933Z,1023.88
2019-03-30T00:58:09.969Z,1023.88
2019-03-30T00:59:09.990Z,1023.87
2019-03-30T01:00:09.990Z,1023.83
2019-03-30T01:01:10.014Z,1023.81
2019-03-30T01:02:10.046Z,1023.79
2019-03-30T01:03:10.059Z,1023.77
2019-03-30T01:04:10.092Z,1023.77
2019-03-30T01:05:10.123Z,1023.76
2019-03-30T01:06:10.145Z,1023.74
2019-03-30T01:07:10.151Z,1023.75
2019-03-30T01:08:10.195Z,1023.76
2019-03-30T01:09:10.195Z,1023.77
2019-03-30T01:10:10.225Z,1023.74
2019-03-30T01:11:10.235Z,1023.73
2019-03-30T01:12:10.274Z,1023.71
2019-03-30T01:13:10.375Z,1023.70
2019-03-30T01:14:10.315Z,1023.74
2019-03-30T01:15:10.324Z,1023.70
2019-03-30T01:16:10.359Z,1023.69
2019-03-30T01:17:10.374Z,1023.70
2019-03-30T01:18:10.406Z,1023.65
2019-03-30T01:19:10.423Z,1023.67
2019-03-30T01:20:10.440Z,1023.67
2019-03-30T01:21:10.463Z,1023.66
2019-03-30T01:22:10.485Z,1023.71
2019-03-30T01:23:10.505Z,1023.70
2019-03-30T01:24:10.526Z,1023.70
2019-03-30T01:25:10.551Z,1023.71
2019-03-30T01:26:10.571Z,1023.71
2019-03-30T01:27:10.693Z,1023.68
2019-03-30T01:28:10.651Z,1023.67
2019-03-30T01:29:10.635Z,1023.68
2019-03-30T01:30:22.445Z,1023.68
2019-03-30T01:31:10.679Z,1023.67
2019-03-30T01:32:10.703Z,1023.69
2019-03-30T01:33:10.721Z,1023.69
2019-03-30T01:34:10.754Z,1023.67
2019-03-30T01:35:10.805Z,1023.70
2019-03-30T01:36:10.794Z,1023.67
2019-03-30T01:37:10.815Z,1023.67
2019-03-30T01:38:10.835Z,1023.70
2019-03-30T01:39:10.865Z,1023.67
2019-03-30T01:40:10.879Z,1023.70
2019-03-30T01:41:10.903Z,1023.70
2019-03-30T01:42:10.926Z,1023.68
2019-03-30T01:43:11.011Z,1023.67
2019-03-30T01:44:11.031Z,1023.67
2019-03-30T01:45:11.019Z,1023.64
2019-03-30T01:46:11.045Z,1023.66
2019-03-30T01:47:11.081Z,1023.64
2019-03-30T01:48:11.094Z,1023.62
2019-03-30T01:49:11.101Z,1023.60
2019-03-30T01:50:17.534Z,1023.59
2019-03-30T01:51:11.131Z,1023.63
2019-03-30T01:52:11.151Z,1023.61
2019-03-30T01:53:11.185Z,1023.62
2019-03-30T01:54:11.193Z,1023.59
2019-03-30T01:55:11.213Z,1023.60
2019-03-30T01:56:11.237Z,1023.61
2019-03-30T01:57:11.261Z,1023.63
2019-03-30T01:58:11.279Z,1023.63
2019-03-30T01:59:11.307Z,1023.61
2019-03-30T02:00:11.336Z,1023.62
2019-03-30T02:01:11.345Z,1023.61
2019-03-30T02:02:11.373Z,1023.65
2019-03-30T02:03:11.401Z,1023.66
2019-03-30T02:04:11.417Z,1023.64
2019-03-30T02:05:11.431Z,1023.67
2019-03-30T02:06:11.459Z,1023.62
2019-03-30T02:07:11.480Z,1023.62
2019-03-30T02:08:11.495Z,1023.61
2019-03-30T02:09:11.529Z,1023.60
2019-03-30T02:10:11.549Z,1023.60
2019-03-30T02:11:11.569Z,1023.54
2019-03-30T02:12:11.585Z,1023.56
2019-03-30T02:13:11.609Z,1023.55
2019-03-30T02:14:11.643Z,1023.56
2019-03-30T02:15:11.654Z,1023.55
2019-03-30T02:16:11.682Z,1023.53
2019-03-30T02:17:11.705Z,1023.51
2019-03-30T02:18:11.720Z,1023.53
2019-03-30T02:19:11.762Z,1023.50
2019-03-30T02:20:11.767Z,1023.50
2019-03-30T02:21:11.792Z,1023.52
2019-03-30T02:22:11.807Z,1023.53
2019-03-30T02:23:11.843Z,1023.51
2019-03-30T02:24:11.856Z,1023.52
2019-03-30T02:25:11.874Z,1023.53
2019-03-30T02:26:11.898Z,1023.52
2019-03-30T02:27:11.917Z,1023.54
2019-03-30T02:28:11.939Z,1023.46
2019-03-30T02:29:12.001Z,1023.47
2019-03-30T02:30:12.264Z,1023.49
2019-03-30T02:31:12.012Z,1023.42
2019-03-30T02:32:12.031Z,1023.41
2019-03-30T02:33:12.069Z,1023.42
2019-03-30T02:34:12.448Z,1023.41
2019-03-30T02:35:12.094Z,1023.41
2019-03-30T02:36:12.121Z,1023.37
2019-03-30T02:37:12.142Z,1023.36
2019-03-30T02:38:12.163Z,1023.36
2019-03-30T02:39:12.186Z,1023.38
2019-03-30T02:40:12.206Z,1023.35
2019-03-30T02:41:12.232Z,1023.36
2019-03-30T02:42:12.249Z,1023.34
2019-03-30T02:43:12.270Z,1023.37
2019-03-30T02:44:12.298Z,1023.34
2019-03-30T02:45:12.311Z,1023.34
2019-03-30T02:46:12.341Z,1023.34
2019-03-30T02:47:12.358Z,1023.34
2019-03-30T02:48:12.379Z,1023.33
2019-03-30T02:49:12.402Z,1023.36
2019-03-30T02:50:12.441Z,1023.33
2019-03-30T02:51:12.455Z,1023.32
2019-03-30T02:52:12.473Z,1023.33
2019-03-30T02:53:12.499Z,1023.30
2019-03-30T02:54:12.503Z,1023.31
2019-03-30T02:55:12.983Z,1023.32
2019-03-30T02:56:12.555Z,1023.32
2019-03-30T02:57:12.590Z,1023.32
2019-03-30T02:58:12.599Z,1023.30
2019-03-30T02:59:12.632Z,1023.32
2019-03-30T03:00:12.642Z,1023.29
2019-03-30T03:01:12.673Z,1023.26
2019-03-30T03:02:12.697Z,1023.25
2019-03-30T03:03:12.708Z,1023.26
2019-03-30T03:04:12.738Z,1023.27
2019-03-30T03:05:12.754Z,1023.25
2019-03-30T03:06:12.790Z,1023.24
2019-03-30T03:07:12.797Z,1023.25
2019-03-30T03:08:12.826Z,1023.25
2019-03-30T03:09:12.837Z,1023.25
2019-03-30T03:10:12.866Z,1023.21
2019-03-30T03:11:12.888Z,1023.25
2019-03-30T03:12:12.908Z,1023.22
2019-03-30T03:13:12.932Z,1023.23
2019-03-30T03:14:12.968Z,1023.19
2019-03-30T03:15:12.980Z,1023.19
2019-03-30T03:16:13.018Z,1023.15
2019-03-30T03:17:13.016Z,1023.13
2019-03-30T03:18:13.037Z,1023.13
2019-03-30T03:19:13.056Z,1023.12
2019-03-30T03:20:13.088Z,1023.10
2019-03-30T03:21:13.103Z,1023.11
2019-03-30T03:22:13.129Z,1023.11
2019-03-30T03:23:13.152Z,1023.06
2019-03-30T03:24:13.177Z,1023.05
2019-03-30T03:25:13.210Z,1023.05
2019-03-30T03:26:13.225Z,1023.03
2019-03-30T03:27:13.243Z,1023.04
2019-03-30T03:28:13.266Z,1023.06
2019-03-30T03:29:13.279Z,1023.04
2019-03-30T03:30:13.303Z,1023.03
2019-03-30T03:31:13.334Z,1023.03
2019-03-30T03:32:13.348Z,1023.00
2019-03-30T03:33:13.367Z,1023.01
2019-03-30T03:34:13.392Z,1022.99
2019-03-30T03:35:13.410Z,1022.98
2019-03-30T03:36:13.425Z,1022.96
2019-03-30T03:37:13.459Z,1022.94
2019-03-30T03:38:13.479Z,1022.97
2019-03-30T03:39:13.499Z,1022.92
2019-03-30T03:40:13.533Z,1022.93
2019-03-30T03:41:13.546Z,1022.92
2019-03-30T03:42:13.562Z,1022.91
2019-03-30T03:43:13.588Z,1022.93
2019-03-30T03:44:13.619Z,1022.93
2019-03-30T03:45:13.650Z,1022.94
2019-03-30T03:46:13.646Z,1022.91
2019-03-30T03:47:13.673Z,1022.90
2019-03-30T03:48:13.700Z,1022.89
2019-03-30T03:49:13.712Z,1022.89
2019-03-30T03:50:13.736Z,1022.88
2019-03-30T03:51:25.617Z,1022.86
2019-03-30T03:52:13.816Z,1022.85
2019-03-30T03:53:13.824Z,1022.85
2019-03-30T03:54:13.889Z,1022.84
2019-03-30T03:55:13.892Z,1022.85
2019-03-30T03:56:13.880Z,1022.84
2019-03-30T03:57:13.885Z,1022.82
2019-03-30T03:58:13.904Z,1022.82
2019-03-30T03:59:13.942Z,1022.83
2019-03-30T04:00:13.951Z,1022.86
2019-03-30T04:01:13.985Z,1022.87
2019-03-30T04:02:13.992Z,1022.81
2019-03-30T04:03:14.038Z,1022.83
2019-03-30T04:04:14.040Z,1022.84
2019-03-30T04:05:14.083Z,1022.85
2019-03-30T04:06:14.091Z,1022.86
2019-03-30T04:07:14.095Z,1022.86
2019-03-30T04:08:14.132Z,1022.88
2019-03-30T04:09:14.175Z,1022.89
2019-03-30T04:10:14.165Z,1022.93
2019-03-30T04:11:14.190Z,1022.90
2019-03-30T04:12:14.233Z,1022.87
2019-03-30T04:13:14.238Z,1022.87
2019-03-30T04:14:14.250Z,1022.82
2019-03-30T04:15:14.282Z,1022.81
2019-03-30T04:16:14.304Z,1022.81
2019-03-30T04:17:14.318Z,1022.77
2019-03-30T04:18:14.343Z,1022.75
2019-03-30T04:19:14.367Z,1022.71
2019-03-30T04:20:14.403Z,1022.75
2019-03-30T04:21:14.405Z,1022.73
2019-03-30T04:22:14.435Z,1022.73
2019-03-30T04:23:14.482Z,1022.73
2019-03-30T04:24:14.477Z,1022.70
2019-03-30T04:25:14.491Z,1022.70
2019-03-30T04:26:14.514Z,1022.68
2019-03-30T04:27:14.536Z,1022.65
2019-03-30T04:28:14.889Z,1022.67
2019-03-30T04:29:14.616Z,1022.64
2019-03-30T04:30:14.604Z,1022.65
2019-03-30T04:31:14.630Z,1022.66
2019-03-30T04:32:14.971Z,1022.66
2019-03-30T04:33:14.683Z,1022.70
2019-03-30T04:34:14.689Z,1022.69
2019-03-30T04:35:14.705Z,1022.70
2019-03-30T04:36:14.737Z,1022.67
2019-03-30T04:37:14.751Z,1022.69
2019-03-30T04:38:14.820Z,1022.71
2019-03-30T04:39:15.047Z,1022.66
2019-03-30T04:40:14.948Z,1022.64
2019-03-30T04:41:14.839Z,1022.65
2019-03-30T04:42:15.825Z,1022.61
2019-03-30T04:43:14.917Z,1022.60
2019-03-30T04:45:14.991Z,1022.59
2019-03-30T04:46:14.988Z,1022.57
2019-03-30T04:47:15.423Z,1022.61
2019-03-30T04:48:14.991Z,1022.56
2019-03-30T04:49:15.087Z,1022.59
2019-03-30T04:50:15.032Z,1022.57
2019-03-30T04:51:15.051Z,1022.58
2019-03-30T04:52:15.073Z,1022.61
2019-03-30T04:53:15.089Z,1022.61
2019-03-30T04:54:15.119Z,1022.60
2019-03-30T04:55:15.131Z,1022.57
2019-03-30T04:56:15.160Z,1022.56
2019-03-30T04:57:15.175Z,1022.55
2019-03-30T04:58:15.203Z,1022.53
2019-03-30T04:59:15.220Z,1022.54
2019-03-30T05:00:15.257Z,1022.57
2019-03-30T05:01:15.261Z,1022.56
2019-03-30T05:02:15.281Z,1022.54
2019-03-30T05:03:15.306Z,1022.54
2019-03-30T05:04:15.402Z,1022.56
2019-03-30T05:05:15.357Z,1022.54
2019-03-30T05:06:15.380Z,1022.51
2019-03-30T05:07:15.393Z,1022.51
2019-03-30T05:09:15.483Z,1022.50
2019-03-30T05:10:15.508Z,1022.50
2019-03-30T05:11:15.527Z,1022.48
2019-03-30T05:12:15.545Z,1022.42
2019-03-30T05:13:15.563Z,1022.45
2019-03-30T05:14:15.589Z,1022.45
2019-03-30T05:15:15.569Z,1022.45
2019-03-30T05:16:15.587Z,1022.46
2019-03-30T05:17:15.615Z,1022.45
2019-03-30T05:18:15.625Z,1022.47
2019-03-30T05:19:15.648Z,1022.49
2019-03-30T05:20:15.669Z,1022.50
2019-03-30T05:21:15.705Z,1022.47
2019-03-30T05:22:16.706Z,1022.46
2019-03-30T05:23:15.770Z,1022.48
2019-03-30T05:24:15.761Z,1022.44
2019-03-30T05:25:15.775Z,1022.43
2019-03-30T05:26:15.819Z,1022.42
2019-03-30T05:27:15.827Z,1022.46
2019-03-30T05:28:15.882Z,1022.46
2019-03-30T05:29:15.894Z,1022.44
2019-03-30T05:30:15.883Z,1022.48
2019-03-30T05:31:15.907Z,1022.44
2019-03-30T05:32:15.922Z,1022.44
2019-03-30T05:33:15.948Z,1022.48
2019-03-30T05:34:15.973Z,1022.45
2019-03-30T05:35:15.989Z,1022.49
2019-03-30T05:36:16.033Z,1022.48
2019-03-30T05:37:16.040Z,1022.51
2019-03-30T05:38:16.055Z,1022.49
2019-03-30T05:39:16.089Z,1022.49
2019-03-30T05:40:16.097Z,1022.46
2019-03-30T05:41:16.127Z,1022.46
2019-03-30T05:42:16.140Z,1022.43
2019-03-30T05:43:16.185Z,1022.45
2019-03-30T05:44:16.183Z,1022.44
2019-03-30T05:45:16.212Z,1022.45
2019-03-30T05:46:16.229Z,1022.45
2019-03-30T05:47:16.251Z,1022.46
2019-03-30T05:48:16.286Z,1022.44
2019-03-30T05:49:16.289Z,1022.45
2019-03-30T05:50:16.321Z,1022.45
2019-03-30T05:51:16.332Z,1022.47
2019-03-30T05:52:26.230Z,1022.49
2019-03-30T05:53:16.384Z,1022.50
2019-03-30T05:54:16.415Z,1022.47
2019-03-30T05:55:16.421Z,1022.47
2019-03-30T05:56:16.447Z,1022.50
2019-03-30T05:57:16.476Z,1022.43
2019-03-30T05:58:16.487Z,1022.44
2019-03-30T05:59:16.511Z,1022.43
2019-03-30T06:00:16.536Z,1022.44
2019-03-30T06:01:16.554Z,1022.45
2019-03-30T06:02:16.568Z,1022.41
2019-03-30T06:03:16.592Z,1022.40
2019-03-30T06:04:16.611Z,1022.40
2019-03-30T06:05:16.629Z,1022.37
2019-03-30T06:06:16.655Z,1022.38
2019-03-30T06:07:16.688Z,1022.34
2019-03-30T06:08:16.699Z,1022.37
2019-03-30T06:09:16.719Z,1022.38
2019-03-30T06:10:16.749Z,1022.33
2019-03-30T06:11:16.766Z,1022.33
2019-03-30T06:12:16.783Z,1022.32
2019-03-30T06:13:16.810Z,1022.31
2019-03-30T06:14:16.827Z,1022.35
2019-03-30T06:15:16.866Z,1022.36
2019-03-30T06:16:16.875Z,1022.34
2019-03-30T06:17:16.900Z,1022.34
2019-03-30T06:18:16.911Z,1022.33
2019-03-30T06:19:16.949Z,1022.33
2019-03-30T06:20:16.961Z,1022.35
2019-03-30T06:21:16.981Z,1022.30
2019-03-30T06:22:17.004Z,1022.28
2019-03-30T06:23:17.023Z,1022.28
2019-03-30T06:24:17.050Z,1022.25
2019-03-30T06:25:17.090Z,1022.26
2019-03-30T06:26:17.095Z,1022.27
2019-03-30T06:27:17.100Z,1022.22
2019-03-30T06:28:17.132Z,1022.27
2019-03-30T06:29:17.157Z,1022.24
2019-03-30T06:30:17.180Z,1022.24
2019-03-30T06:31:17.196Z,1022.26
2019-03-30T06:32:17.211Z,1022.21
2019-03-30T06:33:17.243Z,1022.22
2019-03-30T06:34:17.257Z,1022.26
2019-03-30T06:35:17.283Z,1022.26
2019-03-30T06:36:17.303Z,1022.22
2019-03-30T06:37:17.323Z,1022.23
2019-03-30T06:38:17.344Z,1022.22
2019-03-30T06:39:17.373Z,1022.22
2019-03-30T06:40:17.394Z,1022.21
2019-03-30T06:41:17.416Z,1022.24
2019-03-30T06:42:17.509Z,1022.23
2019-03-30T06:43:17.457Z,1022.24
2019-03-30T06:44:17.478Z,1022.24
2019-03-30T06:45:17.493Z,1022.21
2019-03-30T06:46:17.519Z,1022.17
2019-03-30T06:47:17.551Z,1022.20
2019-03-30T06:48:17.559Z,1022.17
2019-03-30T06:49:17.590Z,1022.13
2019-03-30T06:50:17.616Z,1022.08
2019-03-30T06:51:17.622Z,1022.11
2019-03-30T06:52:17.644Z,1022.09
2019-03-30T06:53:17.665Z,1022.03
2019-03-30T06:54:17.691Z,1022.05
2019-03-30T06:55:17.717Z,1022.09
2019-03-30T06:56:17.737Z,1022.04
2019-03-30T06:57:17.751Z,1022.05
2019-03-30T06:58:17.788Z,1022.02
2019-03-30T06:59:17.817Z,1022.04
2019-03-30T07:00:17.818Z,1022.04
2019-03-30T07:01:17.839Z,1022.04
2019-03-30T07:02:17.870Z,1021.99
2019-03-30T07:03:17.886Z,1022.01
2019-03-30T07:04:17.910Z,1021.98
2019-03-30T07:05:17.946Z,1022.00
2019-03-30T07:06:17.981Z,1021.99
2019-03-30T07:07:17.985Z,1021.94
2019-03-30T07:08:18.005Z,1021.95
2019-03-30T07:09:18.018Z,1021.95
2019-03-30T07:10:18.109Z,1021.98
2019-03-30T07:11:21.397Z,1021.93
2019-03-30T07:12:18.093Z,1021.97
2019-03-30T07:13:18.104Z,1021.95
2019-03-30T07:14:18.130Z,1021.97
2019-03-30T07:15:18.150Z,1021.96
2019-03-30T07:16:18.167Z,1021.97
2019-03-30T07:17:18.186Z,1021.95
2019-03-30T07:18:18.210Z,1021.94
2019-03-30T07:19:18.244Z,1021.95
2019-03-30T07:20:18.261Z,1021.99
2019-03-30T07:21:18.279Z,1021.96
2019-03-30T07:22:18.302Z,1021.96
2019-03-30T07:23:18.331Z,1021.93
2019-03-30T07:24:18.379Z,1021.95
2019-03-30T07:25:18.380Z,1021.96
2019-03-30T07:26:18.391Z,1021.98
2019-03-30T07:27:18.412Z,1021.98
2019-03-30T07:28:18.435Z,1021.98
2019-03-30T07:29:18.450Z,1022.02
2019-03-30T07:30:18.471Z,1022.01
2019-03-30T07:31:18.496Z,1022.00
2019-03-30T07:32:18.527Z,1022.02
2019-03-30T07:33:18.543Z,1022.02
2019-03-30T07:34:18.716Z,1021.99
2019-03-30T07:35:18.587Z,1022.01
2019-03-30T07:36:18.615Z,1021.99
2019-03-30T07:37:18.620Z,1022.01
2019-03-30T07:38:18.653Z,1022.04
2019-03-30T07:39:18.674Z,1021.98
2019-03-30T07:40:18.687Z,1022.04
2019-03-30T07:41:18.703Z,1022.03
2019-03-30T07:42:18.735Z,1022.04
2019-03-30T07:43:18.759Z,1022.03
2019-03-30T07:44:18.785Z,1022.04
2019-03-30T07:45:19.695Z,1022.00
2019-03-30T07:46:19.884Z,1022.00
2019-03-30T07:47:18.841Z,1022.00
2019-03-30T07:48:18.868Z,1021.99
2019-03-30T07:49:18.885Z,1021.97
2019-03-30T07:50:18.911Z,1021.96
2019-03-30T07:51:18.929Z,1021.99
2019-03-30T07:52:18.968Z,1022.00
2019-03-30T07:53:26.415Z,1021.94
2019-03-30T07:54:18.993Z,1022.00
2019-03-30T07:55:19.101Z,1021.98
2019-03-30T07:56:19.045Z,1021.97
2019-03-30T07:57:19.189Z,1021.98
2019-03-30T07:58:19.091Z,1021.96
2019-03-30T07:59:19.107Z,1021.96
2019-03-30T08:00:19.131Z,1021.96
2019-03-30T08:01:19.169Z,1021.97
2019-03-30T08:02:19.175Z,1021.98
2019-03-30T08:03:19.202Z,1022.02
2019-03-30T08:04:19.215Z,1021.99
2019-03-30T08:05:19.240Z,1021.99
2019-03-30T08:06:19.262Z,1021.97
2019-03-30T08:07:19.291Z,1021.94
2019-03-30T08:08:19.315Z,1021.91
2019-03-30T08:09:19.341Z,1021.88
2019-03-30T08:10:19.351Z,1021.91
2019-03-30T08:11:19.373Z,1021.90
2019-03-30T08:12:19.399Z,1021.90
2019-03-30T08:13:19.415Z,1021.89
2019-03-30T08:14:19.453Z,1021.94
2019-03-30T08:15:19.468Z,1021.92
2019-03-30T08:16:19.502Z,1021.94
2019-03-30T08:17:19.504Z,1021.91
2019-03-30T08:18:19.546Z,1021.92
2019-03-30T08:19:21.805Z,1021.91
2019-03-30T08:20:19.575Z,1021.88
2019-03-30T08:21:19.611Z,1021.89
2019-03-30T08:22:19.620Z,1021.87
2019-03-30T08:23:19.645Z,1021.86
2019-03-30T08:24:19.680Z,1021.85
2019-03-30T08:25:19.688Z,1021.86
2019-03-30T08:26:19.713Z,1021.83
2019-03-30T08:27:19.748Z,1021.83
2019-03-30T08:28:19.757Z,1021.79
2019-03-30T08:29:19.799Z,1021.83
2019-03-30T08:30:19.811Z,1021.83
2019-03-30T08:31:19.837Z,1021.84
2019-03-30T08:32:19.848Z,1021.81
2019-03-30T08:34:19.921Z,1021.87
2019-03-30T08:35:19.952Z,1021.84
2019-03-30T08:36:19.963Z,1021.82
2019-03-30T08:37:19.992Z,1021.82
2019-03-30T08:38:20.014Z,1021.83
2019-03-30T08:39:20.044Z,1021.83
2019-03-30T08:40:41.084Z,1021.87
2019-03-30T08:41:20.098Z,1021.85
2019-03-30T08:42:20.102Z,1021.84
2019-03-30T08:43:20.143Z,1021.83
2019-03-30T08:44:20.159Z,1021.84
2019-03-30T08:45:20.189Z,1021.82
2019-03-30T08:46:41.316Z,1021.82
2019-03-30T08:47:20.219Z,1021.81
2019-03-30T08:48:20.254Z,1021.75
2019-03-30T08:49:20.282Z,1021.75
2019-03-30T08:50:20.309Z,1021.78
2019-03-30T08:51:20.863Z,1021.72
2019-03-30T08:52:41.366Z,1021.71
2019-03-30T08:53:20.385Z,1021.71
2019-03-30T08:54:20.405Z,1021.74
2019-03-30T08:55:20.423Z,1021.70
2019-03-30T08:56:20.442Z,1021.77
2019-03-30T08:57:20.478Z,1021.70
2019-03-30T08:58:41.507Z,1021.70
2019-03-30T08:59:20.557Z,1021.67
2019-03-30T09:00:20.547Z,1021.70
2019-03-30T09:01:20.565Z,1021.73
2019-03-30T09:02:20.595Z,1021.68
2019-03-30T09:03:20.617Z,1021.71
2019-03-30T09:04:41.655Z,1021.72
2019-03-30T09:05:20.684Z,1021.67
2019-03-30T09:06:20.694Z,1021.68
2019-03-30T09:07:20.708Z,1021.71
2019-03-30T09:08:20.733Z,1021.66
2019-03-30T09:09:20.770Z,1021.62
2019-03-30T09:10:41.844Z,1021.60
2019-03-30T09:11:20.810Z,1021.58
2019-03-30T09:12:20.843Z,1021.56
2019-03-30T09:13:20.895Z,1021.54
2019-03-30T09:14:20.887Z,1021.51
2019-03-30T09:15:20.913Z,1021.54
2019-03-30T09:16:44.909Z,1021.54
2019-03-30T09:17:20.961Z,1021.51
2019-03-30T09:18:20.989Z,1021.51
2019-03-30T09:19:21.011Z,1021.48
2019-03-30T09:20:21.036Z,1021.49
2019-03-30T09:21:21.061Z,1021.42
2019-03-30T09:22:42.113Z,1021.39
2019-03-30T09:23:21.120Z,1021.39
2019-03-30T09:24:21.128Z,1021.38
2019-03-30T09:25:21.160Z,1021.36
2019-03-30T09:26:21.213Z,1021.40
2019-03-30T09:27:21.211Z,1021.34
2019-03-30T09:28:42.254Z,1021.35
2019-03-30T09:29:21.257Z,1021.30
2019-03-30T09:30:21.281Z,1021.30
2019-03-30T09:31:21.330Z,1021.28
2019-03-30T09:32:21.341Z,1021.31
2019-03-30T09:33:21.366Z,1021.32
2019-03-30T09:34:42.431Z,1021.29
2019-03-30T09:36:44.517Z,1021.25
2019-03-30T09:37:44.420Z,1021.24
2019-03-30T09:38:44.433Z,1021.18
2019-03-30T09:39:44.461Z,1021.20
2019-03-30T09:41:05.499Z,1021.18
2019-03-30T09:41:44.507Z,1021.18
2019-03-30T09:42:44.539Z,1021.17
2019-03-30T09:43:44.569Z,1021.15
2019-03-30T09:44:44.595Z,1021.15
2019-03-30T09:45:44.617Z,1021.14
2019-03-30T09:47:05.654Z,1021.16
2019-03-30T09:47:44.673Z,1021.16
2019-03-30T09:48:44.694Z,1021.14
2019-03-30T09:49:44.722Z,1021.10
2019-03-30T09:50:44.759Z,1021.11
2019-03-30T09:51:44.808Z,1021.11
2019-03-30T09:53:05.814Z,1021.06
2019-03-30T09:53:44.821Z,1021.07
2019-03-30T09:54:44.849Z,1021.02
2019-03-30T09:55:44.875Z,1021.07
2019-03-30T09:56:44.903Z,1021.06
2019-03-30T09:57:44.941Z,1021.05
2019-03-30T09:59:05.985Z,1021.06
2019-03-30T09:59:45.005Z,1021.07
2019-03-30T10:00:45.012Z,1021.08
2019-03-30T10:01:45.051Z,1021.09
2019-03-30T10:02:45.134Z,1021.04
2019-03-30T10:03:45.093Z,1021.06
2019-03-30T10:05:06.136Z,1021.02
2019-03-30T10:05:45.151Z,1021.05
2019-03-30T10:06:45.175Z,1021.03
2019-03-30T10:07:45.203Z,1021.01
2019-03-30T10:08:45.232Z,1020.98
2019-03-30T10:09:47.224Z,1020.99
2019-03-30T10:11:06.297Z,1021.05
2019-03-30T10:11:45.332Z,1020.96
2019-03-30T10:12:45.365Z,1020.95
2019-03-30T10:13:45.375Z,1020.92
2019-03-30T10:14:45.377Z,1020.92
2019-03-30T10:15:45.413Z,1020.91
2019-03-30T10:17:06.465Z,1020.91
2019-03-30T10:17:45.484Z,1020.91
2019-03-30T10:18:45.553Z,1020.90
2019-03-30T10:19:49.637Z,1020.91
2019-03-30T10:20:45.556Z,1020.91
2019-03-30T10:21:45.581Z,1020.94
2019-03-30T10:23:06.640Z,1020.97
2019-03-30T10:23:45.645Z,1020.91
2019-03-30T10:24:45.664Z,1020.94
2019-03-30T10:25:45.691Z,1020.90
2019-03-30T10:26:45.736Z,1020.90
2019-03-30T10:27:45.749Z,1020.86
2019-03-30T10:29:06.822Z,1020.90
2019-03-30T10:29:45.824Z,1020.89
2019-03-30T10:30:45.827Z,1020.78
2019-03-30T10:31:45.855Z,1020.79
2019-03-30T10:32:45.885Z,1020.79
2019-03-30T10:33:45.910Z,1020.77
2019-03-30T10:35:06.954Z,1020.71
2019-03-30T10:35:45.969Z,1020.71
2019-03-30T10:36:45.989Z,1020.68
2019-03-30T10:37:46.043Z,1020.69
2019-03-30T10:38:46.051Z,1020.63
2019-03-30T10:39:46.101Z,1020.60
2019-03-30T10:41:07.128Z,1020.56
2019-03-30T10:41:46.153Z,1020.56
2019-03-30T10:42:46.167Z,1020.59
2019-03-30T10:43:46.202Z,1020.55
2019-03-30T10:44:46.233Z,1020.59
2019-03-30T10:45:46.259Z,1020.59
2019-03-30T10:48:30.407Z,1020.62
2019-03-30T10:49:51.455Z,1020.59
2019-03-30T10:50:30.469Z,1020.58
2019-03-30T10:51:30.495Z,1020.56
2019-03-30T10:52:51.557Z,1020.56
2019-03-30T10:53:30.570Z,1020.50
2019-03-30T10:54:30.587Z,1020.49
2019-03-30T10:55:30.625Z,1020.49
2019-03-30T10:56:30.657Z,1020.47
2019-03-30T10:57:30.703Z,1020.46
2019-03-30T10:58:51.738Z,1020.51
2019-03-30T10:59:30.753Z,1020.48
2019-03-30T11:00:30.781Z,1020.42
2019-03-30T11:01:30.809Z,1020.47
2019-03-30T11:02:30.840Z,1020.47
2019-03-30T11:03:30.878Z,1020.41
2019-03-30T11:04:51.927Z,1020.39
2019-03-30T11:05:30.942Z,1020.37
2019-03-30T11:06:30.961Z,1020.33
2019-03-30T11:07:30.995Z,1020.29
2019-03-30T11:08:31.027Z,1020.33
2019-03-30T11:09:31.049Z,1020.27
2019-03-30T11:10:52.105Z,1020.28
2019-03-30T11:11:31.121Z,1020.30
2019-03-30T11:12:31.150Z,1020.29
2019-03-30T11:13:31.183Z,1020.27
2019-03-30T11:14:31.215Z,1020.24
2019-03-30T11:15:33.878Z,1020.27
2019-03-30T11:16:52.310Z,1020.27
2019-03-30T11:17:31.312Z,1020.22
2019-03-30T11:18:31.347Z,1020.24
2019-03-30T11:19:31.388Z,1020.21
2019-03-30T11:20:31.410Z,1020.17
2019-03-30T11:21:31.442Z,1020.14
2019-03-30T11:22:52.487Z,1020.12
2019-03-30T11:23:31.507Z,1020.12
2019-03-30T11:24:31.557Z,1020.08
2019-03-30T11:25:31.578Z,1020.09
2019-03-30T11:26:31.691Z,1020.01
2019-03-30T11:27:31.640Z,1020.02
2019-03-30T11:28:52.692Z,1020.06
2019-03-30T11:29:31.707Z,1020.05
2019-03-30T11:30:31.742Z,1020.05
2019-03-30T11:31:31.771Z,1020.05
2019-03-30T11:32:31.814Z,1020.05
2019-03-30T11:33:31.834Z,1019.98
2019-03-30T11:34:52.908Z,1019.99
2019-03-30T11:35:31.910Z,1019.99
2019-03-30T11:36:31.990Z,1019.96
2019-03-30T11:37:31.973Z,1019.93
2019-03-30T11:38:32.006Z,1019.91
2019-03-30T11:39:32.042Z,1019.88
2019-03-30T11:40:53.087Z,1019.85
2019-03-30T11:41:32.111Z,1019.81
2019-03-30T11:42:32.141Z,1019.79
2019-03-30T11:43:32.173Z,1019.82
2019-03-30T11:44:32.215Z,1019.77
2019-03-30T11:45:32.249Z,1019.78
2019-03-30T11:46:53.301Z,1019.75
2019-03-30T11:47:32.290Z,1019.76
2019-03-30T11:48:32.346Z,1019.73
2019-03-30T11:49:32.381Z,1019.71
2019-03-30T11:50:32.423Z,1019.78
2019-03-30T11:51:32.432Z,1019.68
2019-03-30T11:52:53.498Z,1019.69
2019-03-30T11:53:32.512Z,1019.70
2019-03-30T11:54:32.544Z,1019.66
2019-03-30T11:55:32.595Z,1019.62
2019-03-30T11:56:32.620Z,1019.62
2019-03-30T11:57:32.649Z,1019.58
2019-03-30T11:58:53.708Z,1019.52
2019-03-30T11:59:32.730Z,1019.53
2019-03-30T12:00:32.754Z,1019.42
2019-03-30T12:01:32.800Z,1019.37
2019-03-30T12:02:32.819Z,1019.33
2019-03-30T12:03:32.870Z,1019.33
2019-03-30T12:04:53.934Z,1019.33
2019-03-30T12:05:32.912Z,1019.30
2019-03-30T12:06:32.953Z,1019.29
2019-03-30T12:07:32.990Z,1019.26
2019-03-30T12:08:33.022Z,1019.22
2019-03-30T12:09:33.054Z,1019.25
2019-03-30T12:10:54.108Z,1019.22
2019-03-30T12:11:33.120Z,1019.21